Time;durP1;ratioP1;P1;durP2;ratioP2;P2;SDS_P1;SDS_P2;PMS_P1;PMS_P2;Temp;Humidity;BMP_temperature;BMP_pressure;BME280_temperature;BME280_humidity;BME280_pressure;Samples;Min_cycle;Max_cycle;Signal;HPM_P1;HPM_P2
2022/09/20 06:28:19;;;;;;;;;;;;;;;10.13;79.11;100478.63;1035403;54;50697;-82
2022/09/20 06:29:28;;;;;;;;;;;;;;;10.20;78.56;100477.13;1088480;54;19957;-83
2022/09/20 06:32:22;;;;;;;;;;;;;;;10.29;78.25;100473.66;1088382;54;19950;-80
2022/09/20 06:33:43;;;;;;;;;;;;;;;10.40;78.26;100478.09;1088440;54;19942;-83
2022/09/20 06:34:45;;;;;;;;;;;;;;;10.53;77.51;100472.53;1088183;54;19942;-82
2022/09/20 06:35:56;;;;;;;;;;;;;;;10.59;77.42;100476.50;1088388;54;19943;-83
2022/09/20 06:42:59;;;;;;;;;;;;;;;10.40;78.04;100488.78;1087950;54;19947;-83
2022/09/20 06:47:38;;;;;;;;;;;;;;;;;;;;;
2022/09/20 07:16:50;;;;;;;;;;;;;;;11.42;74.90;100473.59;1088893;39;20652;-82
2022/09/20 07:18:05;;;;;;;;;;;;;;;11.42;75.04;100468.25;1088105;54;19930;-83
2022/09/20 07:19:19;;;;;;;;;;;;;;;11.35;74.73;100475.16;1088170;54;20000;-82
2022/09/20 07:20:20;;;;;;;;;;;;;;;11.47;74.77;100478.53;1087813;54;19969;-83
2022/09/20 07:21:24;;;;;;;;;;;;;;;11.42;74.59;100480.81;1088140;54;19946;-84
2022/09/20 07:22:26;;;;;;;;;;;;;;;11.32;74.89;100484.31;1088141;54;19942;-83
2022/09/20 07:23:32;;;;;;;;;;;;;;;11.38;74.93;100477.56;1088051;54;19986;-83
2022/09/20 07:24:33;;;;;;;;;;;;;;;11.22;75.48;100481.63;1087968;54;19927;-83
2022/09/20 07:25:47;;;;;;;;;;;;;;;11.30;75.54;100475.56;1088035;54;19942;-82
2022/09/20 07:27:28;;;;;;;;;;;;;;;;;;;;;
2022/09/20 07:37:25;;;;;;;;;;;;;;;11.81;73.64;100473.59;1088037;54;19946;-82
2022/09/20 07:43:08;;;;;;;;;;;;;;;12.04;71.95;100491.22;1087747;54;19954;-81
2022/09/20 08:05:43;;;;;;;;;;;;;;;13.16;65.25;100495.75;1087199;54;19946;-85
2022/09/20 08:06:53;;;;;;;;;;;;;;;13.03;64.86;100492.59;1088237;54;19950;-83
2022/09/20 08:08:06;;;;;;;;;;;;;;;12.85;65.45;100504.09;1087906;54;19927;-81
2022/09/20 08:09:12;;;;;;;;;;;;;;;12.76;65.19;100504.97;1087987;54;20291;-81
2022/09/20 08:17:56;;;;;;;;;;;;;;;14.32;61.28;100494.09;1088188;54;19942;-83
2022/09/20 08:23:35;;;;;;;;;;;;;;;15.20;55.10;100481.41;1087823;54;19953;-80
2022/09/20 08:24:40;;;;;;;;;;;;;;;15.12;52.30;100487.59;1088046;54;19950;-79
2022/09/20 08:25:41;;;;;;;;;;;;;;;15.00;52.59;100489.75;1087944;54;19946;-81
2022/09/20 08:26:47;;;;;;;;;;;;;;;14.93;53.21;100489.56;1089797;46;19946;-81
2022/09/20 08:27:53;;;;;;;;;;;;;;;15.09;54.00;100494.16;1090151;39;20474;-82
2022/09/20 08:29:21;;;;;;;;;;;;;;;15.24;53.02;100490.81;1088283;54;20097;-82
2022/09/20 08:30:23;;;;;;;;;;;;;;;15.40;51.97;100485.47;1089759;46;19927;-80
2022/09/20 08:31:30;;;;;;;;;;;;;;;15.40;51.07;100485.47;1087837;54;19950;-79
2022/09/20 08:32:41;;;;;;;;;;;;;;;15.49;51.04;100493.59;1087754;54;19946;-79
2022/09/20 08:33:53;;;;;;;;;;;;;;;15.60;51.65;100483.31;1089468;46;19947;-82
2022/09/20 08:35:00;;;;;;;;;;;;;;;15.56;49.88;100490.03;1088038;54;19985;-82
2022/09/20 08:36:02;;;;;;;;;;;;;;;15.70;50.04;100485.84;1088145;54;20341;-80
2022/09/20 08:37:13;;;;;;;;;;;;;;;15.70;49.68;100485.00;1087908;54;20011;-81
2022/09/20 08:38:52;;;;;;;;;;;;;;;15.74;48.89;100487.19;1088022;54;19994;-81
2022/09/20 08:40:09;;;;;;;;;;;;;;;15.75;48.66;100490.72;1093538;39;20296;-80
2022/09/20 08:41:16;;;;;;;;;;;;;;;15.86;49.35;100489.59;1088131;54;19954;-81
2022/09/20 08:45:16;;;;;;;;;;;;;;;16.48;49.46;100485.44;1088112;54;19942;-81
2022/09/20 08:48:12;;;;;;;;;;;;;;;16.82;48.08;100481.59;1088220;54;19949;-84
2022/09/20 08:49:25;;;;;;;;;;;;;;;16.98;48.52;100472.63;1088036;54;19950;-81
2022/09/20 08:50:37;;;;;;;;;;;;;;;16.93;47.80;100478.56;1087839;54;19944;-80
2022/09/20 08:52:10;;;;;;;;;;;;;;;16.72;47.71;100473.72;1088145;46;19950;-83
2022/09/20 08:53:26;;;;;;;;;;;;;;;16.69;48.04;100485.72;1088163;54;19939;-80
2022/09/20 08:54:42;;;;;;;;;;;;;;;16.22;46.09;100476.56;1088065;54;19938;-79
2022/09/20 09:03:22;;;;;;;;;;;;;;;15.56;48.82;100473.03;1088186;54;20682;-81
2022/09/20 09:07:45;;;;;;;;;;;;;;;16.01;48.61;100471.72;1088018;47;20000;-82
2022/09/20 09:08:57;;;;;;;;;;;;;;;16.10;48.07;100477.09;1087741;54;19969;-81
2022/09/20 09:17:27;;;;;;;;;;;;;;;17.07;45.71;100468.03;1088150;54;19939;-79
2022/09/20 09:18:38;;;;;;;;;;;;;;;16.97;45.31;100465.53;1088069;54;20031;-80
2022/09/20 09:19:50;;;;;;;;;;;;;;;16.73;45.51;100474.56;1089300;46;19942;-81
2022/09/20 09:21:06;;;;;;;;;;;;;;;16.99;45.34;100468.91;1090167;46;19994;-82
2022/09/20 09:22:23;;;;;;;;;;;;;;;16.55;45.51;100475.63;1088234;54;19943;-80
2022/09/20 09:23:28;;;;;;;;;;;;;;;15.80;46.45;100469.50;1088781;46;19942;-80
2022/09/20 09:25:01;;;;;;;;;;;;;;;16.01;47.02;100470.88;1088342;54;19942;-81
2022/09/20 09:26:25;;;;;;;;;;;;;;;15.89;47.21;100473.06;1088178;54;19943;-80
2022/09/20 09:27:27;;;;;;;;;;;;;;;15.59;47.92;100470.84;1089420;39;20437;-78
2022/09/20 09:28:35;;;;;;;;;;;;;;;15.43;48.23;100471.66;1087781;54;19942;-79
2022/09/20 09:29:49;;;;;;;;;;;;;;;15.37;48.74;100475.03;1088050;54;19950;-79
2022/09/20 09:30:51;;;;;;;;;;;;;;;15.28;48.88;100476.84;1087857;54;19942;-78
2022/09/20 09:31:55;;;;;;;;;;;;;;;15.30;49.04;100474.03;1088092;54;20023;-78
2022/09/20 09:33:15;;;;;;;;;;;;;;;15.41;48.51;100478.25;1088016;54;19955;-80
2022/09/20 09:34:37;;;;;;;;;;;;;;;15.23;47.90;100475.66;1087989;54;19949;-83
2022/09/20 09:36:06;;;;;;;;;;;;;;;15.48;48.26;100479.25;1088043;54;19947;-83
2022/09/20 09:37:33;;;;;;;;;;;;;;;15.54;48.38;100461.56;1088058;54;19947;-82
2022/09/20 09:38:43;;;;;;;;;;;;;;;15.47;48.04;100474.03;1087969;54;19935;-80
2022/09/20 09:39:59;;;;;;;;;;;;;;;15.39;48.75;100472.16;1088738;46;19969;-81
2022/09/20 09:41:27;;;;;;;;;;;;;;;15.44;48.84;100480.59;1088011;54;19942;-81
2022/09/20 09:43:58;;;;;;;;;;;;;;;15.39;48.76;100470.34;1090625;39;20546;-79
2022/09/20 09:45:10;;;;;;;;;;;;;;;15.41;48.62;100475.53;1096343;39;20558;-78
2022/09/20 09:46:44;;;;;;;;;;;;;;;15.41;48.73;100464.78;1088184;54;19977;-80
2022/09/20 09:48:19;;;;;;;;;;;;;;;15.23;48.61;100475.66;1088220;54;19951;-82
2022/09/20 09:53:11;;;;;;;;;;;;;;;15.07;49.73;100473.75;1088298;54;19947;-85
2022/09/20 09:54:21;;;;;;;;;;;;;;;14.93;47.92;100483.31;1089944;46;19997;-80
2022/09/20 09:55:23;;;;;;;;;;;;;;;14.90;47.97;100476.41;1087910;54;19942;-79
2022/09/20 09:56:43;;;;;;;;;;;;;;;14.88;47.98;100473.03;1088045;54;19943;-80
2022/09/20 09:58:11;;;;;;;;;;;;;;;14.79;46.66;100476.69;1088072;54;19943;-81
2022/09/20 10:01:01;;;;;;;;;;;;;;;14.90;47.60;100468.34;1087925;54;19943;-83
2022/09/20 10:02:14;;;;;;;;;;;;;;;15.12;47.00;100474.13;1089784;46;19945;-81
2022/09/20 10:06:25;;;;;;;;;;;;;;;16.01;43.27;100466.31;1087934;54;19931;-80
2022/09/20 10:07:36;;;;;;;;;;;;;;;16.04;43.39;100460.59;1087695;54;20314;-81
2022/09/20 10:08:58;;;;;;;;;;;;;;;16.30;42.77;100464.94;1087863;54;19943;-81
2022/09/20 10:10:17;;;;;;;;;;;;;;;16.43;42.34;100455.47;1088671;31;20657;-82
2022/09/20 10:14:39;;;;;;;;;;;;;;;16.86;42.25;100463.22;1088022;54;19969;-79
2022/09/20 10:33:40;;;;;;;;;;;;;;;16.88;44.01;100440.44;1087326;54;19943;-79
2022/09/20 10:36:26;;;;;;;;;;;;;;;16.44;45.33;100449.03;1089289;31;20661;-78
2022/09/20 10:39:20;;;;;;;;;;;;;;;16.15;45.48;100455.88;1087719;54;19934;-79
2022/09/20 10:46:28;;;;;;;;;;;;;;;15.90;47.03;100453.19;1087925;54;19943;-82
2022/09/20 10:47:35;;;;;;;;;;;;;;;15.79;47.04;100457.03;1090341;46;19949;-79
2022/09/20 10:48:47;;;;;;;;;;;;;;;15.62;47.34;100455.38;1088023;46;19943;-79
2022/09/20 10:50:03;;;;;;;;;;;;;;;15.55;47.61;100460.56;1090191;46;19939;-80
2022/09/20 10:51:32;;;;;;;;;;;;;;;15.52;48.03;100450.13;1088151;54;19927;-82
2022/09/20 10:52:53;;;;;;;;;;;;;;;15.56;47.41;100455.00;1088954;46;19942;-80
2022/09/20 11:02:36;;;;;;;;;;;;;;;16.08;44.14;100444.91;1087552;54;19956;-80
2022/09/20 11:03:51;;;;;;;;;;;;;;;16.37;44.16;100448.91;1087406;54;19989;-78
2022/09/20 11:05:10;;;;;;;;;;;;;;;16.42;43.69;100445.69;1090730;46;19943;-80
2022/09/20 11:06:17;;;;;;;;;;;;;;;16.44;44.44;100454.41;1085880;54;19958;-78
2022/09/20 11:07:24;;;;;;;;;;;;;;;16.57;44.40;100449.31;1086699;54;19943;-79
2022/09/20 11:08:30;;;;;;;;;;;;;;;16.64;44.34;100444.06;1087015;47;19967;-80
2022/09/20 11:09:33;;;;;;;;;;;;;;;16.75;44.84;100449.09;1086737;54;19951;-80
2022/09/20 11:10:39;;;;;;;;;;;;;;;16.83;45.04;100437.41;1087208;54;19942;-80
2022/09/20 11:11:42;;;;;;;;;;;;;;;16.74;45.03;100436.63;1087219;54;19947;-80
2022/09/20 11:12:50;;;;;;;;;;;;;;;16.61;45.62;100441.72;1087228;54;19943;-80
2022/09/20 11:14:01;;;;;;;;;;;;;;;16.63;45.73;100445.09;1086836;54;19954;-79
2022/09/20 11:15:05;;;;;;;;;;;;;;;16.63;45.95;100451.31;1086387;54;19947;-79
2022/09/20 11:16:14;;;;;;;;;;;;;;;16.14;45.40;100443.38;1087202;54;19942;-79
2022/09/20 11:17:19;;;;;;;;;;;;;;;16.21;45.80;100444.38;1091869;39;20174;-78
2022/09/20 11:18:24;;;;;;;;;;;;;;;16.40;45.37;100453.09;1087219;54;19965;-78
2022/09/20 11:19:33;;;;;;;;;;;;;;;16.50;45.43;100443.78;1087073;54;19950;-79
2022/09/20 11:20:36;;;;;;;;;;;;;;;16.51;45.14;100448.16;1087021;39;20167;-79
2022/09/20 11:21:42;;;;;;;;;;;;;;;16.64;44.95;100438.69;1087104;54;19985;-79
2022/09/20 11:22:47;;;;;;;;;;;;;;;16.72;44.80;100451.31;1087206;54;19947;-79
2022/09/20 11:23:56;;;;;;;;;;;;;;;16.75;45.21;100445.53;1086840;54;19968;-80
2022/09/20 11:25:04;;;;;;;;;;;;;;;16.86;45.49;100442.44;1087140;54;19972;-79
2022/09/20 11:26:11;;;;;;;;;;;;;;;16.83;45.31;100442.78;1087327;54;20033;-80
2022/09/20 11:27:20;;;;;;;;;;;;;;;16.65;46.01;100453.88;1086904;54;19998;-79
2022/09/20 11:28:24;;;;;;;;;;;;;;;16.76;45.85;100452.63;1086898;54;19958;-79
2022/09/20 11:29:31;;;;;;;;;;;;;;;16.75;46.31;100454.50;1087039;54;20002;-80
2022/09/20 11:30:33;;;;;;;;;;;;;;;16.76;46.83;100456.19;1087311;54;19930;-79
2022/09/20 11:31:38;;;;;;;;;;;;;;;16.78;46.78;100453.28;1087756;47;19927;-79
2022/09/20 11:32:41;;;;;;;;;;;;;;;16.64;46.40;100450.31;1087186;54;19947;-80
2022/09/20 11:33:47;;;;;;;;;;;;;;;16.64;46.57;100461.09;1089621;46;19950;-80
2022/09/20 11:34:56;;;;;;;;;;;;;;;16.73;46.84;100458.38;1087861;54;19994;-80
2022/09/20 11:35:59;;;;;;;;;;;;;;;16.77;47.19;100459.72;1087359;54;19950;-79
2022/09/20 11:37:04;;;;;;;;;;;;;;;16.67;47.05;100460.75;1086551;54;19953;-78
2022/09/20 11:38:10;;;;;;;;;;;;;;;16.45;44.03;100454.25;1087028;54;19949;-77
2022/09/20 11:39:17;;;;;;;;;;;;;;;16.27;44.40;100457.16;1087212;54;19951;-79
2022/09/20 11:40:24;;;;;;;;;;;;;;;16.06;43.89;100469.34;1087185;54;19942;-79
2022/09/20 11:41:26;;;;;;;;;;;;;;;15.94;44.56;100465.31;1087122;54;19942;-78
2022/09/20 11:42:32;;;;;;;;;;;;;;;15.68;45.38;100471.69;1087110;54;19972;-79
2022/09/20 11:43:34;;;;;;;;;;;;;;;15.52;46.56;100466.28;1086880;54;19986;-79
2022/09/20 11:44:42;;;;;;;;;;;;;;;15.43;48.42;100468.97;1087431;46;19964;-78
2022/09/20 11:45:47;;;;;;;;;;;;;;;15.27;48.99;100472.47;1086920;54;19954;-77
2022/09/20 11:46:52;;;;;;;;;;;;;;;15.26;49.30;100478.03;1086379;54;19950;-79
2022/09/20 11:47:59;;;;;;;;;;;;;;;15.24;50.32;100469.28;1088740;46;19973;-78
2022/09/20 11:49:01;;;;;;;;;;;;;;;15.20;50.09;100473.31;1086961;54;19949;-78
2022/09/20 11:50:33;;;;;;;;;;;;;;;15.14;50.41;100469.44;1086914;54;19943;-79
2022/09/20 11:51:48;;;;;;;;;;;;;;;15.00;51.69;100470.06;1086651;54;19950;-79
2022/09/20 11:52:59;;;;;;;;;;;;;;;14.95;52.50;100470.53;1086746;54;19950;-78
2022/09/20 11:54:14;;;;;;;;;;;;;;;14.96;52.68;100472.22;1086377;54;19947;-78
2022/09/20 11:55:33;;;;;;;;;;;;;;;14.96;52.45;100477.63;1086337;54;19978;-78
2022/09/20 11:56:37;;;;;;;;;;;;;;;15.00;51.64;100468.22;1085831;54;19946;-78
2022/09/20 11:57:38;;;;;;;;;;;;;;;14.87;51.03;100463.31;1089191;39;20340;-77
2022/09/20 11:58:49;;;;;;;;;;;;;;;14.80;51.54;100457.72;1087550;39;20627;-78
2022/09/20 11:59:52;;;;;;;;;;;;;;;14.84;50.73;100457.38;1086547;47;19947;-80
2022/09/20 12:00:57;;;;;;;;;;;;;;;14.95;50.58;100460.63;1085988;54;19946;-79
2022/09/20 12:02:00;;;;;;;;;;;;;;;15.01;50.34;100461.81;1086838;54;19938;-78
2022/09/20 12:03:05;;;;;;;;;;;;;;;15.00;48.99;100451.22;1086405;54;20766;-77
2022/09/20 12:04:13;;;;;;;;;;;;;;;15.16;49.02;100453.09;1086776;54;19950;-79
2022/09/20 12:05:32;;;;;;;;;;;;;;;15.21;48.80;100453.47;1086447;54;20821;-78
2022/09/20 12:06:37;;;;;;;;;;;;;;;15.05;48.33;100455.09;1086360;54;19943;-79
2022/09/20 12:07:40;;;;;;;;;;;;;;;15.06;49.06;100456.78;1085265;54;20591;-77
2022/09/20 12:08:44;;;;;;;;;;;;;;;15.07;49.26;100458.47;1086017;54;19942;-78
2022/09/20 12:09:51;;;;;;;;;;;;;;;15.02;48.97;100450.03;1085951;54;19950;-77
2022/09/20 12:10:57;;;;;;;;;;;;;;;15.11;49.52;100448.22;1086393;39;20498;-78
2022/09/20 12:11:59;;;;;;;;;;;;;;;15.18;48.96;100448.41;1086374;54;19942;-79
2022/09/20 12:13:05;;;;;;;;;;;;;;;15.23;48.73;100446.91;1086360;54;19942;-77
2022/09/20 12:14:19;;;;;;;;;;;;;;;15.32;48.68;100449.59;1086968;47;20669;-79
2022/09/20 12:15:33;;;;;;;;;;;;;;;15.27;46.23;100445.53;1087107;54;19958;-79
2022/09/20 12:16:35;;;;;;;;;;;;;;;15.24;46.32;100451.28;1086032;54;19955;-79
2022/09/20 12:17:54;;;;;;;;;;;;;;;15.27;46.52;100445.53;1086698;54;20002;-80
2022/09/20 12:19:06;;;;;;;;;;;;;;;15.25;46.02;100450.28;1086556;54;19942;-79
2022/09/20 12:20:22;;;;;;;;;;;;;;;15.31;45.66;100451.44;1086804;54;19946;-79
2022/09/20 12:21:28;;;;;;;;;;;;;;;15.38;45.15;100443.53;1086902;54;19945;-79
2022/09/20 12:22:30;;;;;;;;;;;;;;;15.31;45.50;100435.28;1085686;54;19958;-79
2022/09/20 12:23:48;;;;;;;;;;;;;;;15.35;46.62;100452.81;1086165;54;19962;-78
2022/09/20 12:25:12;;;;;;;;;;;;;;;15.39;47.09;100440.69;1086348;54;19957;-78
2022/09/20 12:26:28;;;;;;;;;;;;;;;15.48;46.81;100433.44;1086672;54;19927;-80
2022/09/20 12:27:47;;;;;;;;;;;;;;;15.57;45.93;100434.31;1086557;54;19950;-79
2022/09/20 12:28:49;;;;;;;;;;;;;;;15.59;44.31;100446.59;1086681;54;21159;-79
2022/09/20 12:29:56;;;;;;;;;;;;;;;15.62;43.82;100436.50;1086549;54;19957;-79
2022/09/20 12:31:12;;;;;;;;;;;;;;;15.65;44.01;100431.63;1088873;47;19942;-79
2022/09/20 12:32:32;;;;;;;;;;;;;;;15.68;43.71;100428.56;1086984;54;20029;-79
2022/09/20 12:33:57;;;;;;;;;;;;;;;15.59;43.20;100433.13;1087017;54;19950;-79
2022/09/20 12:34:58;;;;;;;;;;;;;;;15.62;43.04;100425.72;1085669;54;19985;-79
2022/09/20 12:36:15;;;;;;;;;;;;;;;15.56;43.10;100424.53;1086893;54;19962;-79
2022/09/20 12:37:22;;;;;;;;;;;;;;;15.44;43.88;100427.56;1086820;54;19977;-79
2022/09/20 12:38:30;;;;;;;;;;;;;;;15.37;44.23;100426.56;1086637;54;20018;-79
2022/09/20 12:39:35;;;;;;;;;;;;;;;15.28;44.47;100427.56;1086400;54;19951;-79
2022/09/20 12:40:56;;;;;;;;;;;;;;;15.34;44.35;100429.56;1087077;54;19947;-80
2022/09/20 12:42:00;;;;;;;;;;;;;;;15.39;44.65;100418.28;1087376;54;19972;-79
2022/09/20 12:43:02;;;;;;;;;;;;;;;15.53;44.46;100425.72;1087150;47;19957;-80
2022/09/20 12:44:21;;;;;;;;;;;;;;;15.62;44.30;100426.56;1087639;47;19939;-80
2022/09/20 12:45:22;;;;;;;;;;;;;;;15.66;44.13;100419.81;1087723;54;19973;-78
2022/09/20 12:46:33;;;;;;;;;;;;;;;15.60;44.38;100421.34;1087691;54;20025;-79
2022/09/20 12:47:53;;;;;;;;;;;;;;;15.65;44.20;100417.28;1087108;54;19986;-80
2022/09/20 12:52:48;;;;;;;;;;;;;;;15.78;44.43;100422.16;1087793;47;19938;-79
2022/09/20 12:53:15;;;;;;;;;;;;;;;15.84;44.41;100419.66;1087143;54;19939;-79
2022/09/20 12:54:17;;;;;;;;;;;;;;;15.73;44.41;100415.44;1088654;47;19991;-79
2022/09/20 12:55:37;;;;;;;;;;;;;;;15.76;44.45;100416.94;1087644;54;19927;-79
2022/09/20 12:56:45;;;;;;;;;;;;;;;15.97;44.31;100412.91;1087450;54;19990;-78
2022/09/20 12:57:53;;;;;;;;;;;;;;;16.05;44.05;100413.75;1087102;54;19965;-80
2022/09/20 12:58:59;;;;;;;;;;;;;;;16.14;44.13;100417.25;1087184;54;20478;-79
2022/09/20 13:00:01;;;;;;;;;;;;;;;16.14;44.79;100411.03;1087392;54;19950;-81
2022/09/20 13:01:26;;;;;;;;;;;;;;;16.17;44.65;100411.53;1086722;54;19946;-81
2022/09/20 13:02:46;;;;;;;;;;;;;;;16.14;44.68;100413.72;1085337;54;20070;-79
2022/09/20 13:03:48;;;;;;;;;;;;;;;16.09;44.74;100413.38;1085813;47;19980;-77
2022/09/20 13:04:58;;;;;;;;;;;;;;;16.10;44.73;100420.47;1086159;54;19951;-80
2022/09/20 13:06:18;;;;;;;;;;;;;;;16.06;44.80;100415.41;1086315;54;19945;-79
2022/09/20 13:07:31;;;;;;;;;;;;;;;15.98;45.17;100417.28;1085501;54;19978;-80
2022/09/20 13:08:42;;;;;;;;;;;;;;;15.97;44.99;100421.81;1086174;54;19951;-79
2022/09/20 13:09:43;;;;;;;;;;;;;;;15.95;45.04;100423.00;1085711;54;19951;-78
2022/09/20 13:10:50;;;;;;;;;;;;;;;15.92;45.21;100415.28;1085999;54;20006;-78
2022/09/20 13:11:53;;;;;;;;;;;;;;;15.85;44.66;100413.25;1085878;54;19958;-79
2022/09/20 13:13:00;;;;;;;;;;;;;;;15.79;45.09;100423.84;1086725;54;19975;-78
2022/09/20 13:14:07;;;;;;;;;;;;;;;15.67;45.45;100421.50;1086932;54;20023;-77
2022/09/20 13:15:16;;;;;;;;;;;;;;;15.53;45.89;100414.09;1086837;54;19950;-79
2022/09/20 13:16:22;;;;;;;;;;;;;;;15.44;46.11;100419.47;1086527;54;19958;-79
2022/09/20 13:17:26;;;;;;;;;;;;;;;15.42;46.55;100412.56;1086806;54;20011;-80
2022/09/20 13:18:30;;;;;;;;;;;;;;;15.47;46.51;100420.97;1087095;54;19950;-79
2022/09/20 13:19:32;;;;;;;;;;;;;;;15.53;46.97;100427.56;1086833;54;19942;-80
2022/09/20 13:20:38;;;;;;;;;;;;;;;15.59;46.62;100424.19;1086810;54;19943;-79
2022/09/20 13:21:47;;;;;;;;;;;;;;;15.66;47.08;100425.22;1086523;54;19939;-79
2022/09/20 13:22:48;;;;;;;;;;;;;;;15.68;47.08;100427.72;1086386;54;19953;-80
2022/09/20 13:23:55;;;;;;;;;;;;;;;15.71;47.05;100425.53;1086434;54;19952;-80
2022/09/20 13:24:59;;;;;;;;;;;;;;;15.61;47.73;100422.16;1087495;54;19966;-79
2022/09/20 13:26:04;;;;;;;;;;;;;;;15.44;49.15;100424.88;1088665;46;19950;-79
2022/09/20 13:27:08;;;;;;;;;;;;;;;15.41;49.55;100422.50;1086616;54;20074;-78
2022/09/20 13:28:18;;;;;;;;;;;;;;;15.41;50.10;100424.34;1087311;54;20559;-78
2022/09/20 13:29:27;;;;;;;;;;;;;;;15.34;50.40;100418.78;1087290;54;20817;-79
2022/09/20 13:30:30;;;;;;;;;;;;;;;15.28;50.75;100428.38;1091636;39;20467;-79
2022/09/20 13:31:35;;;;;;;;;;;;;;;15.33;50.71;100427.06;1086811;54;19950;-79
2022/09/20 13:32:40;;;;;;;;;;;;;;;15.20;51.09;100430.22;1087241;54;19950;-79
2022/09/20 13:33:44;;;;;;;;;;;;;;;15.28;51.42;100427.56;1086451;54;19958;-80
2022/09/20 13:34:47;;;;;;;;;;;;;;;15.29;51.31;100426.53;1086733;54;19946;-79
2022/09/20 13:35:53;;;;;;;;;;;;;;;15.29;51.33;100427.38;1086762;54;19950;-78
2022/09/20 13:37:00;;;;;;;;;;;;;;;15.24;51.81;100426.19;1087315;39;20480;-80
2022/09/20 13:38:03;;;;;;;;;;;;;;;15.22;52.06;100428.19;1086506;54;20537;-79
2022/09/20 13:39:10;;;;;;;;;;;;;;;15.29;52.03;100423.84;1086576;54;20043;-78
2022/09/20 13:40:16;;;;;;;;;;;;;;;15.24;51.76;100423.50;1087075;54;19994;-79
2022/09/20 13:41:19;;;;;;;;;;;;;;;15.16;51.77;100423.47;1087146;54;19994;-78
2022/09/20 13:42:21;;;;;;;;;;;;;;;15.07;51.66;100426.16;1087263;54;19949;-79
2022/09/20 13:43:29;;;;;;;;;;;;;;;15.10;51.95;100422.28;1087661;54;19998;-79
2022/09/20 13:44:33;;;;;;;;;;;;;;;15.04;51.81;100420.28;1087525;39;20009;-78
2022/09/20 13:45:37;;;;;;;;;;;;;;;15.07;51.75;100414.53;1087446;54;19946;-78
2022/09/20 13:46:42;;;;;;;;;;;;;;;15.19;51.83;100417.78;1087717;54;19931;-79
2022/09/20 13:47:50;;;;;;;;;;;;;;;15.29;51.16;100413.06;1087055;54;19953;-78
2022/09/20 13:48:52;;;;;;;;;;;;;;;15.52;50.90;100417.78;1087375;54;19958;-79
2022/09/20 13:50:04;;;;;;;;;;;;;;;15.65;50.33;100417.28;1089029;46;19934;-79
2022/09/20 13:51:18;;;;;;;;;;;;;;;15.56;50.41;100411.06;1087428;54;19942;-78
2022/09/20 13:52:23;;;;;;;;;;;;;;;15.64;50.24;100411.06;1087681;54;19943;-78
2022/09/20 13:53:29;;;;;;;;;;;;;;;15.76;50.08;100411.53;1087592;54;19940;-79
2022/09/20 13:54:33;;;;;;;;;;;;;;;15.90;49.74;100410.91;1086914;54;19977;-79
2022/09/20 13:55:37;;;;;;;;;;;;;;;16.02;49.59;100406.00;1087030;54;19927;-79
2022/09/20 13:56:39;;;;;;;;;;;;;;;16.02;48.78;100414.06;1087143;54;19973;-79
2022/09/20 13:57:43;;;;;;;;;;;;;;;16.01;48.32;100409.69;1087117;54;20033;-79
2022/09/20 13:58:44;;;;;;;;;;;;;;;15.89;47.82;100408.34;1087127;54;19951;-79
2022/09/20 13:59:48;;;;;;;;;;;;;;;15.90;47.62;100408.22;1087176;54;19943;-79
2022/09/20 14:00:50;;;;;;;;;;;;;;;15.97;47.27;100411.03;1087500;54;19954;-80
2022/09/20 14:01:55;;;;;;;;;;;;;;;16.11;47.60;100396.00;1087674;54;19946;-79
2022/09/20 14:02:57;;;;;;;;;;;;;;;16.00;46.98;100409.88;1088162;39;20226;-78
2022/09/20 14:04:05;;;;;;;;;;;;;;;16.14;46.93;100403.75;1087883;54;19998;-80
2022/09/20 14:05:16;;;;;;;;;;;;;;;16.22;46.64;100402.91;1087198;54;19998;-80
2022/09/20 14:06:26;;;;;;;;;;;;;;;16.30;46.53;100405.56;1087525;54;19943;-79
2022/09/20 14:07:29;;;;;;;;;;;;;;;16.36;45.35;100404.88;1087737;54;20011;-80
2022/09/20 14:08:39;;;;;;;;;;;;;;;16.17;44.54;100411.53;1087555;54;19953;-78
2022/09/20 14:09:44;;;;;;;;;;;;;;;16.16;44.63;100414.38;1087544;54;19949;-80
2022/09/20 14:10:48;;;;;;;;;;;;;;;16.21;44.53;100406.63;1087795;54;19946;-80
2022/09/20 14:11:51;;;;;;;;;;;;;;;16.16;43.38;100414.38;1088230;39;20398;-79
2022/09/20 14:12:54;;;;;;;;;;;;;;;16.18;43.80;100412.34;1087315;54;19947;-80
2022/09/20 14:14:00;;;;;;;;;;;;;;;16.30;43.64;100408.28;1087796;54;19942;-79
2022/09/20 14:15:07;;;;;;;;;;;;;;;16.33;43.75;100407.94;1087330;54;19950;-79
2022/09/20 14:16:12;;;;;;;;;;;;;;;16.33;42.92;100401.69;1086984;54;19939;-80
2022/09/20 14:17:18;;;;;;;;;;;;;;;16.13;43.25;100401.25;1087401;54;19927;-79
2022/09/20 14:18:21;;;;;;;;;;;;;;;15.97;42.94;100404.81;1087110;54;19934;-79
2022/09/20 14:20:43;;;;;;;;;;;;;;;15.96;43.31;100405.81;1087234;54;19947;-80
2022/09/20 14:21:44;;;;;;;;;;;;;;;16.05;43.14;100402.97;1087428;54;19973;-79
2022/09/20 14:22:48;;;;;;;;;;;;;;;16.13;42.90;100407.47;1086891;54;19943;-79
2022/09/20 14:23:50;;;;;;;;;;;;;;;16.20;42.31;100407.63;1087410;54;19939;-79
2022/09/20 14:25:19;;;;;;;;;;;;;;;16.25;42.73;100405.25;1087351;54;19950;-80
2022/09/20 14:26:24;;;;;;;;;;;;;;;16.42;42.58;100410.59;1089593;46;19998;-77
2022/09/20 14:27:30;;;;;;;;;;;;;;;16.45;42.53;100405.69;1089939;31;20630;-80
2022/09/20 14:28:31;;;;;;;;;;;;;;;16.48;42.28;100407.19;1087465;54;19987;-80
2022/09/20 14:34:16;;;;;;;;;;;;;;;16.12;40.76;100404.97;1088140;54;19939;-79
2022/09/20 14:35:36;;;;;;;;;;;;;;;15.98;40.91;100404.63;1088537;46;19990;-80
2022/09/20 14:36:43;;;;;;;;;;;;;;;15.96;41.30;100397.75;1087819;54;19942;-81
2022/09/20 14:38:01;;;;;;;;;;;;;;;15.91;41.60;100403.66;1088367;39;20533;-79
2022/09/20 14:39:21;;;;;;;;;;;;;;;15.96;41.95;100398.59;1088157;54;19998;-81
2022/09/20 14:40:51;;;;;;;;;;;;;;;16.21;41.52;100403.91;1088176;54;19923;-82
2022/09/20 14:48:32;;;;;;;;;;;;;;;16.36;41.19;100404.03;1087170;54;19939;-82
2022/09/20 14:49:37;;;;;;;;;;;;;;;16.16;41.66;100398.19;1091384;46;19942;-81
2022/09/20 14:50:57;;;;;;;;;;;;;;;16.20;41.72;100391.44;1087973;54;19942;-80
2022/09/20 14:52:16;;;;;;;;;;;;;;;16.04;41.75;100395.03;1087888;54;19942;-81
2022/09/20 14:55:00;;;;;;;;;;;;;;;16.11;41.26;100398.72;1089548;46;19938;-81
2022/09/20 14:56:14;;;;;;;;;;;;;;;16.05;41.64;100391.31;1087948;54;19950;-80
2022/09/20 14:57:15;;;;;;;;;;;;;;;16.04;41.57;100395.88;1086344;54;20438;-80
2022/09/20 14:58:23;;;;;;;;;;;;;;;16.28;41.47;100391.41;1086604;54;19946;-82
2022/09/20 14:59:29;;;;;;;;;;;;;;;16.32;41.79;100398.16;1087548;54;19965;-83
2022/09/20 15:00:48;;;;;;;;;;;;;;;16.21;42.31;100395.81;1087539;54;20741;-82
2022/09/20 15:01:57;;;;;;;;;;;;;;;16.15;42.24;100391.13;1087833;54;19969;-80
2022/09/20 15:03:06;;;;;;;;;;;;;;;16.18;42.33;100390.78;1087640;39;20377;-79
2022/09/20 15:04:11;;;;;;;;;;;;;;;16.17;42.54;100394.47;1086042;39;20358;-78
2022/09/20 15:05:17;;;;;;;;;;;;;;;16.19;42.87;100389.75;1086616;54;19947;-80
2022/09/20 15:06:21;;;;;;;;;;;;;;;16.19;43.15;100398.72;1087218;54;19947;-80
2022/09/20 15:07:23;;;;;;;;;;;;;;;16.20;43.47;100394.97;1086994;54;19930;-80
2022/09/20 15:08:27;;;;;;;;;;;;;;;16.14;43.52;100395.69;1087785;54;19927;-79
2022/09/20 15:09:39;;;;;;;;;;;;;;;16.28;43.64;100395.97;1087892;54;19927;-81
2022/09/20 15:10:42;;;;;;;;;;;;;;;16.26;43.74;100392.63;1087603;54;19951;-80
2022/09/20 15:11:45;;;;;;;;;;;;;;;16.41;43.41;100384.63;1088334;54;19973;-81
2022/09/20 15:12:49;;;;;;;;;;;;;;;16.46;43.70;100395.72;1089026;46;19942;-79
2022/09/20 15:13:51;;;;;;;;;;;;;;;16.46;43.35;100399.28;1088157;46;19946;-80
2022/09/20 15:15:05;;;;;;;;;;;;;;;16.50;43.69;100394.38;1087455;54;20576;-78
2022/09/20 15:16:09;;;;;;;;;;;;;;;16.50;43.22;100381.72;1087906;46;20562;-78
2022/09/20 15:17:14;;;;;;;;;;;;;;;16.42;42.87;100392.53;1087804;54;19943;-79
2022/09/20 15:18:22;;;;;;;;;;;;;;;16.43;43.11;100383.44;1086907;54;20112;-82
2022/09/20 15:19:23;;;;;;;;;;;;;;;16.45;43.14;100386.81;1085566;54;19972;-79